<?xml version="1.0" encoding="UTF-8" standalone="no" ?>
<gpx xmlns="http://www.topografix.com/GPX/1/1" xmlns:xsi="http://www.w3.org/2001/XMLSchema-instance" xsi:schemaLocation="http://www.topografix.com/GPX/1/1 http://www.topografix.com/GPX/1/1/gpx.xsd" version="1.1" creator="VisuGPX - https://www.visugpx.com">
  <metadata>
    <name>rando du plateau 2019 20km</name>
  </metadata>
  <trk>
    <name><![CDATA[rando du plateau 2019 20km]]></name>
    <trkseg>
      <trkpt lat="46.7507" lon="5.61132">
        <ele>267</ele>
        <time>2020-08-26T13:31:05+02:00</time>
      </trkpt>
      <trkpt lat="46.7512" lon="5.61168">
        <ele>266</ele>
        <time>2020-08-26T13:31:10+02:00</time>
      </trkpt>
      <trkpt lat="46.75181" lon="5.61078">
        <ele>265</ele>
        <time>2020-08-26T13:31:15+02:00</time>
      </trkpt>
      <trkpt lat="46.75233" lon="5.61035">
        <ele>263</ele>
        <time>2020-08-26T13:31:20+02:00</time>
      </trkpt>
      <trkpt lat="46.7527" lon="5.60984">
        <ele>263</ele>
        <time>2020-08-26T13:31:25+02:00</time>
      </trkpt>
      <trkpt lat="46.7532" lon="5.609">
        <ele>263</ele>
        <time>2020-08-26T13:31:30+02:00</time>
      </trkpt>
      <trkpt lat="46.75382" lon="5.60791">
        <ele>262</ele>
        <time>2020-08-26T13:31:35+02:00</time>
      </trkpt>
      <trkpt lat="46.75344" lon="5.60728">
        <ele>264</ele>
        <time>2020-08-26T13:31:40+02:00</time>
      </trkpt>
      <trkpt lat="46.75329" lon="5.60503">
        <ele>266</ele>
        <time>2020-08-26T13:31:45+02:00</time>
      </trkpt>
      <trkpt lat="46.75278" lon="5.6022">
        <ele>270</ele>
        <time>2020-08-26T13:31:50+02:00</time>
      </trkpt>
      <trkpt lat="46.75241" lon="5.60102">
        <ele>270</ele>
        <time>2020-08-26T13:31:55+02:00</time>
      </trkpt>
      <trkpt lat="46.752" lon="5.60038">
        <ele>271</ele>
        <time>2020-08-26T13:32:00+02:00</time>
      </trkpt>
      <trkpt lat="46.75191" lon="5.59952">
        <ele>273</ele>
        <time>2020-08-26T13:32:05+02:00</time>
      </trkpt>
      <trkpt lat="46.75203" lon="5.59926">
        <ele>273</ele>
        <time>2020-08-26T13:32:10+02:00</time>
      </trkpt>
      <trkpt lat="46.75279" lon="5.59969">
        <ele>270</ele>
        <time>2020-08-26T13:32:15+02:00</time>
      </trkpt>
      <trkpt lat="46.75326" lon="5.60029">
        <ele>269</ele>
        <time>2020-08-26T13:32:20+02:00</time>
      </trkpt>
      <trkpt lat="46.75369" lon="5.59999">
        <ele>266</ele>
        <time>2020-08-26T13:32:25+02:00</time>
      </trkpt>
      <trkpt lat="46.75379" lon="5.59913">
        <ele>265</ele>
        <time>2020-08-26T13:32:30+02:00</time>
      </trkpt>
      <trkpt lat="46.75436" lon="5.59759">
        <ele>261</ele>
        <time>2020-08-26T13:32:35+02:00</time>
      </trkpt>
      <trkpt lat="46.755" lon="5.59638">
        <ele>258</ele>
        <time>2020-08-26T13:32:40+02:00</time>
      </trkpt>
      <trkpt lat="46.75523" lon="5.59585">
        <ele>256</ele>
        <time>2020-08-26T13:32:45+02:00</time>
      </trkpt>
      <trkpt lat="46.75519" lon="5.59467">
        <ele>254</ele>
        <time>2020-08-26T13:32:50+02:00</time>
      </trkpt>
      <trkpt lat="46.75532" lon="5.59306">
        <ele>254</ele>
        <time>2020-08-26T13:32:55+02:00</time>
      </trkpt>
      <trkpt lat="46.75547" lon="5.59207">
        <ele>255</ele>
        <time>2020-08-26T13:33:00+02:00</time>
      </trkpt>
      <trkpt lat="46.75538" lon="5.59153">
        <ele>257</ele>
        <time>2020-08-26T13:33:05+02:00</time>
      </trkpt>
      <trkpt lat="46.75538" lon="5.59132">
        <ele>257</ele>
        <time>2020-08-26T13:33:10+02:00</time>
      </trkpt>
      <trkpt lat="46.75555" lon="5.59059">
        <ele>257</ele>
        <time>2020-08-26T13:33:15+02:00</time>
      </trkpt>
      <trkpt lat="46.75547" lon="5.59014">
        <ele>258</ele>
        <time>2020-08-26T13:33:20+02:00</time>
      </trkpt>
      <trkpt lat="46.7547" lon="5.59005">
        <ele>265</ele>
        <time>2020-08-26T13:33:25+02:00</time>
      </trkpt>
      <trkpt lat="46.75405" lon="5.59012">
        <ele>268</ele>
        <time>2020-08-26T13:33:30+02:00</time>
      </trkpt>
      <trkpt lat="46.75357" lon="5.59016">
        <ele>272</ele>
        <time>2020-08-26T13:33:35+02:00</time>
      </trkpt>
      <trkpt lat="46.75325" lon="5.58997">
        <ele>271</ele>
        <time>2020-08-26T13:33:40+02:00</time>
      </trkpt>
      <trkpt lat="46.75292" lon="5.58975">
        <ele>272</ele>
        <time>2020-08-26T13:33:45+02:00</time>
      </trkpt>
      <trkpt lat="46.75269" lon="5.58971">
        <ele>274</ele>
        <time>2020-08-26T13:33:50+02:00</time>
      </trkpt>
      <trkpt lat="46.75272" lon="5.58932">
        <ele>274</ele>
        <time>2020-08-26T13:33:55+02:00</time>
      </trkpt>
      <trkpt lat="46.75285" lon="5.58836">
        <ele>275</ele>
        <time>2020-08-26T13:34:00+02:00</time>
      </trkpt>
      <trkpt lat="46.75273" lon="5.58782">
        <ele>275</ele>
        <time>2020-08-26T13:34:05+02:00</time>
      </trkpt>
      <trkpt lat="46.7536" lon="5.58804">
        <ele>275</ele>
        <time>2020-08-26T13:34:10+02:00</time>
      </trkpt>
      <trkpt lat="46.75416" lon="5.58793">
        <ele>275</ele>
        <time>2020-08-26T13:34:15+02:00</time>
      </trkpt>
      <trkpt lat="46.75485" lon="5.58744">
        <ele>270</ele>
        <time>2020-08-26T13:34:20+02:00</time>
      </trkpt>
      <trkpt lat="46.75505" lon="5.58724">
        <ele>270</ele>
        <time>2020-08-26T13:34:25+02:00</time>
      </trkpt>
      <trkpt lat="46.75539" lon="5.58729">
        <ele>270</ele>
        <time>2020-08-26T13:34:30+02:00</time>
      </trkpt>
      <trkpt lat="46.75563" lon="5.58696">
        <ele>270</ele>
        <time>2020-08-26T13:34:35+02:00</time>
      </trkpt>
      <trkpt lat="46.75591" lon="5.58679">
        <ele>270</ele>
        <time>2020-08-26T13:34:40+02:00</time>
      </trkpt>
      <trkpt lat="46.75616" lon="5.58615">
        <ele>270</ele>
        <time>2020-08-26T13:34:45+02:00</time>
      </trkpt>
      <trkpt lat="46.75639" lon="5.58596">
        <ele>268</ele>
        <time>2020-08-26T13:34:50+02:00</time>
      </trkpt>
      <trkpt lat="46.75716" lon="5.58623">
        <ele>260</ele>
        <time>2020-08-26T13:34:55+02:00</time>
      </trkpt>
      <trkpt lat="46.7581" lon="5.58669">
        <ele>256</ele>
        <time>2020-08-26T13:35:00+02:00</time>
      </trkpt>
      <trkpt lat="46.75888" lon="5.58737">
        <ele>254</ele>
        <time>2020-08-26T13:35:05+02:00</time>
      </trkpt>
      <trkpt lat="46.75949" lon="5.58752">
        <ele>254</ele>
        <time>2020-08-26T13:35:10+02:00</time>
      </trkpt>
      <trkpt lat="46.75973" lon="5.58621">
        <ele>251</ele>
        <time>2020-08-26T13:35:15+02:00</time>
      </trkpt>
      <trkpt lat="46.76032" lon="5.58407">
        <ele>251</ele>
        <time>2020-08-26T13:35:20+02:00</time>
      </trkpt>
      <trkpt lat="46.76054" lon="5.58278">
        <ele>252</ele>
        <time>2020-08-26T13:35:25+02:00</time>
      </trkpt>
      <trkpt lat="46.76098" lon="5.58123">
        <ele>250</ele>
        <time>2020-08-26T13:35:30+02:00</time>
      </trkpt>
      <trkpt lat="46.76277" lon="5.58216">
        <ele>250</ele>
        <time>2020-08-26T13:35:35+02:00</time>
      </trkpt>
      <trkpt lat="46.76402" lon="5.58295">
        <ele>250</ele>
        <time>2020-08-26T13:35:40+02:00</time>
      </trkpt>
      <trkpt lat="46.76451" lon="5.58329">
        <ele>250</ele>
        <time>2020-08-26T13:35:45+02:00</time>
      </trkpt>
      <trkpt lat="46.76577" lon="5.58385">
        <ele>250</ele>
        <time>2020-08-26T13:35:50+02:00</time>
      </trkpt>
      <trkpt lat="46.76731" lon="5.58463">
        <ele>249</ele>
        <time>2020-08-26T13:35:55+02:00</time>
      </trkpt>
      <trkpt lat="46.76799" lon="5.58495">
        <ele>248</ele>
        <time>2020-08-26T13:36:00+02:00</time>
      </trkpt>
      <trkpt lat="46.76847" lon="5.58505">
        <ele>247</ele>
        <time>2020-08-26T13:36:05+02:00</time>
      </trkpt>
      <trkpt lat="46.76875" lon="5.58518">
        <ele>246</ele>
        <time>2020-08-26T13:36:10+02:00</time>
      </trkpt>
      <trkpt lat="46.77083" lon="5.58634">
        <ele>238</ele>
        <time>2020-08-26T13:36:15+02:00</time>
      </trkpt>
      <trkpt lat="46.77258" lon="5.58741">
        <ele>235</ele>
        <time>2020-08-26T13:36:20+02:00</time>
      </trkpt>
      <trkpt lat="46.77315" lon="5.58754">
        <ele>235</ele>
        <time>2020-08-26T13:36:25+02:00</time>
      </trkpt>
      <trkpt lat="46.77449" lon="5.58825">
        <ele>240</ele>
        <time>2020-08-26T13:36:30+02:00</time>
      </trkpt>
      <trkpt lat="46.77487" lon="5.58827">
        <ele>240</ele>
        <time>2020-08-26T13:36:35+02:00</time>
      </trkpt>
      <trkpt lat="46.77647" lon="5.58952">
        <ele>249</ele>
        <time>2020-08-26T13:36:40+02:00</time>
      </trkpt>
      <trkpt lat="46.77864" lon="5.59072">
        <ele>258</ele>
        <time>2020-08-26T13:36:45+02:00</time>
      </trkpt>
      <trkpt lat="46.77909" lon="5.59113">
        <ele>259</ele>
        <time>2020-08-26T13:36:50+02:00</time>
      </trkpt>
      <trkpt lat="46.77946" lon="5.59192">
        <ele>261</ele>
        <time>2020-08-26T13:36:55+02:00</time>
      </trkpt>
      <trkpt lat="46.78072" lon="5.59166">
        <ele>262</ele>
        <time>2020-08-26T13:37:00+02:00</time>
      </trkpt>
      <trkpt lat="46.78187" lon="5.59131">
        <ele>263</ele>
        <time>2020-08-26T13:37:05+02:00</time>
      </trkpt>
      <trkpt lat="46.78305" lon="5.59097">
        <ele>267</ele>
        <time>2020-08-26T13:37:10+02:00</time>
      </trkpt>
      <trkpt lat="46.78404" lon="5.59071">
        <ele>268</ele>
        <time>2020-08-26T13:37:15+02:00</time>
      </trkpt>
      <trkpt lat="46.78478" lon="5.59063">
        <ele>268</ele>
        <time>2020-08-26T13:37:20+02:00</time>
      </trkpt>
      <trkpt lat="46.78572" lon="5.59071">
        <ele>270</ele>
        <time>2020-08-26T13:37:25+02:00</time>
      </trkpt>
      <trkpt lat="46.78642" lon="5.59089">
        <ele>272</ele>
        <time>2020-08-26T13:37:30+02:00</time>
      </trkpt>
      <trkpt lat="46.78666" lon="5.59114">
        <ele>274</ele>
        <time>2020-08-26T13:37:35+02:00</time>
      </trkpt>
      <trkpt lat="46.78701" lon="5.59264">
        <ele>284</ele>
        <time>2020-08-26T13:37:40+02:00</time>
      </trkpt>
      <trkpt lat="46.78722" lon="5.59402">
        <ele>293</ele>
        <time>2020-08-26T13:37:45+02:00</time>
      </trkpt>
      <trkpt lat="46.78751" lon="5.59556">
        <ele>302</ele>
        <time>2020-08-26T13:37:50+02:00</time>
      </trkpt>
      <trkpt lat="46.7876" lon="5.59659">
        <ele>309</ele>
        <time>2020-08-26T13:37:55+02:00</time>
      </trkpt>
      <trkpt lat="46.78778" lon="5.59741">
        <ele>314</ele>
        <time>2020-08-26T13:38:00+02:00</time>
      </trkpt>
      <trkpt lat="46.78804" lon="5.59822">
        <ele>320</ele>
        <time>2020-08-26T13:38:05+02:00</time>
      </trkpt>
      <trkpt lat="46.78772" lon="5.5988">
        <ele>326</ele>
        <time>2020-08-26T13:38:10+02:00</time>
      </trkpt>
      <trkpt lat="46.78709" lon="5.59947">
        <ele>331</ele>
        <time>2020-08-26T13:38:15+02:00</time>
      </trkpt>
      <trkpt lat="46.78687" lon="5.60015">
        <ele>331</ele>
        <time>2020-08-26T13:38:20+02:00</time>
      </trkpt>
      <trkpt lat="46.78677" lon="5.6018">
        <ele>323</ele>
        <time>2020-08-26T13:38:25+02:00</time>
      </trkpt>
      <trkpt lat="46.78683" lon="5.6036">
        <ele>322</ele>
        <time>2020-08-26T13:38:30+02:00</time>
      </trkpt>
      <trkpt lat="46.78761" lon="5.60441">
        <ele>321</ele>
        <time>2020-08-26T13:38:35+02:00</time>
      </trkpt>
      <trkpt lat="46.78811" lon="5.60544">
        <ele>319</ele>
        <time>2020-08-26T13:38:40+02:00</time>
      </trkpt>
      <trkpt lat="46.78805" lon="5.60712">
        <ele>323</ele>
        <time>2020-08-26T13:38:45+02:00</time>
      </trkpt>
      <trkpt lat="46.7878" lon="5.61085">
        <ele>326</ele>
        <time>2020-08-26T13:38:50+02:00</time>
      </trkpt>
      <trkpt lat="46.78857" lon="5.61068">
        <ele>322</ele>
        <time>2020-08-26T13:38:55+02:00</time>
      </trkpt>
      <trkpt lat="46.78924" lon="5.61051">
        <ele>319</ele>
        <time>2020-08-26T13:39:00+02:00</time>
      </trkpt>
      <trkpt lat="46.78986" lon="5.61047">
        <ele>317</ele>
        <time>2020-08-26T13:39:05+02:00</time>
      </trkpt>
      <trkpt lat="46.79056" lon="5.61051">
        <ele>312</ele>
        <time>2020-08-26T13:39:10+02:00</time>
      </trkpt>
      <trkpt lat="46.79142" lon="5.60918">
        <ele>310</ele>
        <time>2020-08-26T13:39:15+02:00</time>
      </trkpt>
      <trkpt lat="46.79194" lon="5.60806">
        <ele>321</ele>
        <time>2020-08-26T13:39:20+02:00</time>
      </trkpt>
      <trkpt lat="46.79268" lon="5.60768">
        <ele>323</ele>
        <time>2020-08-26T13:39:25+02:00</time>
      </trkpt>
      <trkpt lat="46.79327" lon="5.60712">
        <ele>323</ele>
        <time>2020-08-26T13:39:30+02:00</time>
      </trkpt>
      <trkpt lat="46.79385" lon="5.60759">
        <ele>325</ele>
        <time>2020-08-26T13:39:35+02:00</time>
      </trkpt>
      <trkpt lat="46.79441" lon="5.60853">
        <ele>319</ele>
        <time>2020-08-26T13:39:40+02:00</time>
      </trkpt>
      <trkpt lat="46.79485" lon="5.60918">
        <ele>312</ele>
        <time>2020-08-26T13:39:45+02:00</time>
      </trkpt>
      <trkpt lat="46.79576" lon="5.60836">
        <ele>305</ele>
        <time>2020-08-26T13:39:50+02:00</time>
      </trkpt>
      <trkpt lat="46.7965" lon="5.60806">
        <ele>298</ele>
        <time>2020-08-26T13:39:55+02:00</time>
      </trkpt>
      <trkpt lat="46.7965" lon="5.60858">
        <ele>294</ele>
        <time>2020-08-26T13:40:00+02:00</time>
      </trkpt>
      <trkpt lat="46.79644" lon="5.60931">
        <ele>290</ele>
        <time>2020-08-26T13:40:05+02:00</time>
      </trkpt>
      <trkpt lat="46.79626" lon="5.61042">
        <ele>290</ele>
        <time>2020-08-26T13:40:10+02:00</time>
      </trkpt>
      <trkpt lat="46.79679" lon="5.61082">
        <ele>291</ele>
        <time>2020-08-26T13:40:15+02:00</time>
      </trkpt>
      <trkpt lat="46.79737" lon="5.61354">
        <ele>304</ele>
        <time>2020-08-26T13:40:20+02:00</time>
      </trkpt>
      <trkpt lat="46.79697" lon="5.61493">
        <ele>313</ele>
        <time>2020-08-26T13:40:25+02:00</time>
      </trkpt>
      <trkpt lat="46.79618" lon="5.61586">
        <ele>323</ele>
        <time>2020-08-26T13:40:30+02:00</time>
      </trkpt>
      <trkpt lat="46.79537" lon="5.6168">
        <ele>331</ele>
        <time>2020-08-26T13:40:35+02:00</time>
      </trkpt>
      <trkpt lat="46.79486" lon="5.61832">
        <ele>336</ele>
        <time>2020-08-26T13:40:40+02:00</time>
      </trkpt>
      <trkpt lat="46.79402" lon="5.61783">
        <ele>340</ele>
        <time>2020-08-26T13:40:45+02:00</time>
      </trkpt>
      <trkpt lat="46.79339" lon="5.61766">
        <ele>343</ele>
        <time>2020-08-26T13:40:50+02:00</time>
      </trkpt>
      <trkpt lat="46.79327" lon="5.61817">
        <ele>346</ele>
        <time>2020-08-26T13:40:55+02:00</time>
      </trkpt>
      <trkpt lat="46.79202" lon="5.61893">
        <ele>361</ele>
        <time>2020-08-26T13:41:00+02:00</time>
      </trkpt>
      <trkpt lat="46.79129" lon="5.6194">
        <ele>369</ele>
        <time>2020-08-26T13:41:05+02:00</time>
      </trkpt>
      <trkpt lat="46.79051" lon="5.6194">
        <ele>369</ele>
        <time>2020-08-26T13:41:10+02:00</time>
      </trkpt>
      <trkpt lat="46.78972" lon="5.61985">
        <ele>377</ele>
        <time>2020-08-26T13:41:15+02:00</time>
      </trkpt>
      <trkpt lat="46.78907" lon="5.61989">
        <ele>381</ele>
        <time>2020-08-26T13:41:20+02:00</time>
      </trkpt>
      <trkpt lat="46.78841" lon="5.61987">
        <ele>385</ele>
        <time>2020-08-26T13:41:25+02:00</time>
      </trkpt>
      <trkpt lat="46.78761" lon="5.6194">
        <ele>384</ele>
        <time>2020-08-26T13:41:30+02:00</time>
      </trkpt>
      <trkpt lat="46.7872" lon="5.6194">
        <ele>392</ele>
        <time>2020-08-26T13:41:35+02:00</time>
      </trkpt>
      <trkpt lat="46.78688" lon="5.61932">
        <ele>398</ele>
        <time>2020-08-26T13:41:40+02:00</time>
      </trkpt>
      <trkpt lat="46.78684" lon="5.62024">
        <ele>410</ele>
        <time>2020-08-26T13:41:45+02:00</time>
      </trkpt>
      <trkpt lat="46.78696" lon="5.62103">
        <ele>423</ele>
        <time>2020-08-26T13:41:50+02:00</time>
      </trkpt>
      <trkpt lat="46.78671" lon="5.62071">
        <ele>427</ele>
        <time>2020-08-26T13:41:55+02:00</time>
      </trkpt>
      <trkpt lat="46.78646" lon="5.61998">
        <ele>416</ele>
        <time>2020-08-26T13:42:00+02:00</time>
      </trkpt>
      <trkpt lat="46.78594" lon="5.62009">
        <ele>407</ele>
        <time>2020-08-26T13:42:05+02:00</time>
      </trkpt>
      <trkpt lat="46.78562" lon="5.62058">
        <ele>399</ele>
        <time>2020-08-26T13:42:10+02:00</time>
      </trkpt>
      <trkpt lat="46.78544" lon="5.62148">
        <ele>397</ele>
        <time>2020-08-26T13:42:15+02:00</time>
      </trkpt>
      <trkpt lat="46.78518" lon="5.62238">
        <ele>397</ele>
        <time>2020-08-26T13:42:20+02:00</time>
      </trkpt>
      <trkpt lat="46.78496" lon="5.62264">
        <ele>398</ele>
        <time>2020-08-26T13:42:25+02:00</time>
      </trkpt>
      <trkpt lat="46.7845" lon="5.62234">
        <ele>388</ele>
        <time>2020-08-26T13:42:30+02:00</time>
      </trkpt>
      <trkpt lat="46.78424" lon="5.62206">
        <ele>383</ele>
        <time>2020-08-26T13:42:35+02:00</time>
      </trkpt>
      <trkpt lat="46.78377" lon="5.62189">
        <ele>380</ele>
        <time>2020-08-26T13:42:40+02:00</time>
      </trkpt>
      <trkpt lat="46.78338" lon="5.62151">
        <ele>376</ele>
        <time>2020-08-26T13:42:45+02:00</time>
      </trkpt>
      <trkpt lat="46.78325" lon="5.6206">
        <ele>365</ele>
        <time>2020-08-26T13:42:50+02:00</time>
      </trkpt>
      <trkpt lat="46.78298" lon="5.6191">
        <ele>355</ele>
        <time>2020-08-26T13:42:55+02:00</time>
      </trkpt>
      <trkpt lat="46.78269" lon="5.6182">
        <ele>352</ele>
        <time>2020-08-26T13:43:00+02:00</time>
      </trkpt>
      <trkpt lat="46.7827" lon="5.61754">
        <ele>346</ele>
        <time>2020-08-26T13:43:05+02:00</time>
      </trkpt>
      <trkpt lat="46.78295" lon="5.61713">
        <ele>336</ele>
        <time>2020-08-26T13:43:10+02:00</time>
      </trkpt>
      <trkpt lat="46.78269" lon="5.61698">
        <ele>338</ele>
        <time>2020-08-26T13:43:15+02:00</time>
      </trkpt>
      <trkpt lat="46.78234" lon="5.61678">
        <ele>341</ele>
        <time>2020-08-26T13:43:20+02:00</time>
      </trkpt>
      <trkpt lat="46.782" lon="5.61659">
        <ele>346</ele>
        <time>2020-08-26T13:43:25+02:00</time>
      </trkpt>
      <trkpt lat="46.7817" lon="5.61616">
        <ele>351</ele>
        <time>2020-08-26T13:43:30+02:00</time>
      </trkpt>
      <trkpt lat="46.78143" lon="5.61588">
        <ele>359</ele>
        <time>2020-08-26T13:43:35+02:00</time>
      </trkpt>
      <trkpt lat="46.78118" lon="5.61543">
        <ele>358</ele>
        <time>2020-08-26T13:43:40+02:00</time>
      </trkpt>
      <trkpt lat="46.7809" lon="5.61505">
        <ele>357</ele>
        <time>2020-08-26T13:43:45+02:00</time>
      </trkpt>
      <trkpt lat="46.78032" lon="5.61487">
        <ele>361</ele>
        <time>2020-08-26T13:43:50+02:00</time>
      </trkpt>
      <trkpt lat="46.77919" lon="5.6147">
        <ele>370</ele>
        <time>2020-08-26T13:43:55+02:00</time>
      </trkpt>
      <trkpt lat="46.77869" lon="5.61455">
        <ele>367</ele>
        <time>2020-08-26T13:44:00+02:00</time>
      </trkpt>
      <trkpt lat="46.77832" lon="5.6143">
        <ele>364</ele>
        <time>2020-08-26T13:44:05+02:00</time>
      </trkpt>
      <trkpt lat="46.77759" lon="5.61365">
        <ele>353</ele>
        <time>2020-08-26T13:44:10+02:00</time>
      </trkpt>
      <trkpt lat="46.77608" lon="5.61258">
        <ele>339</ele>
        <time>2020-08-26T13:44:15+02:00</time>
      </trkpt>
      <trkpt lat="46.77464" lon="5.61153">
        <ele>329</ele>
        <time>2020-08-26T13:44:20+02:00</time>
      </trkpt>
      <trkpt lat="46.77343" lon="5.61052">
        <ele>322</ele>
        <time>2020-08-26T13:44:25+02:00</time>
      </trkpt>
      <trkpt lat="46.77265" lon="5.6094">
        <ele>312</ele>
        <time>2020-08-26T13:44:30+02:00</time>
      </trkpt>
      <trkpt lat="46.7722" lon="5.60863">
        <ele>305</ele>
        <time>2020-08-26T13:44:35+02:00</time>
      </trkpt>
      <trkpt lat="46.77195" lon="5.60827">
        <ele>299</ele>
        <time>2020-08-26T13:44:40+02:00</time>
      </trkpt>
      <trkpt lat="46.77186" lon="5.60794">
        <ele>299</ele>
        <time>2020-08-26T13:44:45+02:00</time>
      </trkpt>
      <trkpt lat="46.77173" lon="5.60775">
        <ele>296</ele>
        <time>2020-08-26T13:44:50+02:00</time>
      </trkpt>
      <trkpt lat="46.77169" lon="5.60743">
        <ele>295</ele>
        <time>2020-08-26T13:44:55+02:00</time>
      </trkpt>
      <trkpt lat="46.77127" lon="5.60628">
        <ele>284</ele>
        <time>2020-08-26T13:45:00+02:00</time>
      </trkpt>
      <trkpt lat="46.77119" lon="5.60499">
        <ele>280</ele>
        <time>2020-08-26T13:45:05+02:00</time>
      </trkpt>
      <trkpt lat="46.7713" lon="5.60396">
        <ele>282</ele>
        <time>2020-08-26T13:45:10+02:00</time>
      </trkpt>
      <trkpt lat="46.77146" lon="5.60329">
        <ele>286</ele>
        <time>2020-08-26T13:45:15+02:00</time>
      </trkpt>
      <trkpt lat="46.77186" lon="5.60267">
        <ele>290</ele>
        <time>2020-08-26T13:45:20+02:00</time>
      </trkpt>
      <trkpt lat="46.77216" lon="5.60164">
        <ele>288</ele>
        <time>2020-08-26T13:45:25+02:00</time>
      </trkpt>
      <trkpt lat="46.7726" lon="5.6007">
        <ele>285</ele>
        <time>2020-08-26T13:45:30+02:00</time>
      </trkpt>
      <trkpt lat="46.7733" lon="5.59902">
        <ele>274</ele>
        <time>2020-08-26T13:45:35+02:00</time>
      </trkpt>
      <trkpt lat="46.7741" lon="5.59796">
        <ele>264</ele>
        <time>2020-08-26T13:45:40+02:00</time>
      </trkpt>
      <trkpt lat="46.77448" lon="5.59594">
        <ele>263</ele>
        <time>2020-08-26T13:45:45+02:00</time>
      </trkpt>
      <trkpt lat="46.77463" lon="5.59461">
        <ele>260</ele>
        <time>2020-08-26T13:45:50+02:00</time>
      </trkpt>
      <trkpt lat="46.77451" lon="5.59461">
        <ele>260</ele>
        <time>2020-08-26T13:45:55+02:00</time>
      </trkpt>
      <trkpt lat="46.77397" lon="5.59397">
        <ele>257</ele>
        <time>2020-08-26T13:46:00+02:00</time>
      </trkpt>
      <trkpt lat="46.77207" lon="5.59582">
        <ele>250</ele>
        <time>2020-08-26T13:46:05+02:00</time>
      </trkpt>
      <trkpt lat="46.77142" lon="5.59616">
        <ele>245</ele>
        <time>2020-08-26T13:46:10+02:00</time>
      </trkpt>
      <trkpt lat="46.77086" lon="5.59616">
        <ele>240</ele>
        <time>2020-08-26T13:46:15+02:00</time>
      </trkpt>
      <trkpt lat="46.76962" lon="5.59706">
        <ele>241</ele>
        <time>2020-08-26T13:46:20+02:00</time>
      </trkpt>
      <trkpt lat="46.76878" lon="5.59788">
        <ele>241</ele>
        <time>2020-08-26T13:46:25+02:00</time>
      </trkpt>
      <trkpt lat="46.76885" lon="5.5991">
        <ele>243</ele>
        <time>2020-08-26T13:46:30+02:00</time>
      </trkpt>
      <trkpt lat="46.76863" lon="5.60002">
        <ele>244</ele>
        <time>2020-08-26T13:46:35+02:00</time>
      </trkpt>
      <trkpt lat="46.76801" lon="5.60071">
        <ele>242</ele>
        <time>2020-08-26T13:46:40+02:00</time>
      </trkpt>
      <trkpt lat="46.76742" lon="5.60092">
        <ele>243</ele>
        <time>2020-08-26T13:46:45+02:00</time>
      </trkpt>
      <trkpt lat="46.76719" lon="5.60045">
        <ele>243</ele>
        <time>2020-08-26T13:46:50+02:00</time>
      </trkpt>
      <trkpt lat="46.76651" lon="5.60238">
        <ele>244</ele>
        <time>2020-08-26T13:46:55+02:00</time>
      </trkpt>
      <trkpt lat="46.7654" lon="5.60581">
        <ele>245</ele>
        <time>2020-08-26T13:47:00+02:00</time>
      </trkpt>
      <trkpt lat="46.76497" lon="5.60654">
        <ele>245</ele>
        <time>2020-08-26T13:47:05+02:00</time>
      </trkpt>
      <trkpt lat="46.7641" lon="5.60764">
        <ele>248</ele>
        <time>2020-08-26T13:47:10+02:00</time>
      </trkpt>
      <trkpt lat="46.76328" lon="5.60835">
        <ele>248</ele>
        <time>2020-08-26T13:47:15+02:00</time>
      </trkpt>
      <trkpt lat="46.76266" lon="5.60949">
        <ele>249</ele>
        <time>2020-08-26T13:47:20+02:00</time>
      </trkpt>
      <trkpt lat="46.76219" lon="5.61015">
        <ele>249</ele>
        <time>2020-08-26T13:47:25+02:00</time>
      </trkpt>
      <trkpt lat="46.76167" lon="5.61045">
        <ele>249</ele>
        <time>2020-08-26T13:47:30+02:00</time>
      </trkpt>
      <trkpt lat="46.76056" lon="5.61215">
        <ele>249</ele>
        <time>2020-08-26T13:47:35+02:00</time>
      </trkpt>
      <trkpt lat="46.75991" lon="5.6132">
        <ele>249</ele>
        <time>2020-08-26T13:47:40+02:00</time>
      </trkpt>
      <trkpt lat="46.75971" lon="5.6141">
        <ele>250</ele>
        <time>2020-08-26T13:47:45+02:00</time>
      </trkpt>
      <trkpt lat="46.75966" lon="5.61463">
        <ele>252</ele>
        <time>2020-08-26T13:47:50+02:00</time>
      </trkpt>
      <trkpt lat="46.75903" lon="5.61515">
        <ele>252</ele>
        <time>2020-08-26T13:47:55+02:00</time>
      </trkpt>
      <trkpt lat="46.75815" lon="5.61571">
        <ele>253</ele>
        <time>2020-08-26T13:48:00+02:00</time>
      </trkpt>
      <trkpt lat="46.75744" lon="5.61468">
        <ele>253</ele>
        <time>2020-08-26T13:48:05+02:00</time>
      </trkpt>
      <trkpt lat="46.75661" lon="5.61337">
        <ele>253</ele>
        <time>2020-08-26T13:48:10+02:00</time>
      </trkpt>
      <trkpt lat="46.75641" lon="5.61345">
        <ele>253</ele>
        <time>2020-08-26T13:48:15+02:00</time>
      </trkpt>
      <trkpt lat="46.75569" lon="5.61305">
        <ele>254</ele>
        <time>2020-08-26T13:48:20+02:00</time>
      </trkpt>
      <trkpt lat="46.75469" lon="5.61257">
        <ele>255</ele>
        <time>2020-08-26T13:48:25+02:00</time>
      </trkpt>
      <trkpt lat="46.75417" lon="5.61264">
        <ele>256</ele>
        <time>2020-08-26T13:48:30+02:00</time>
      </trkpt>
      <trkpt lat="46.75378" lon="5.61195">
        <ele>257</ele>
        <time>2020-08-26T13:48:35+02:00</time>
      </trkpt>
      <trkpt lat="46.75352" lon="5.61154">
        <ele>257</ele>
        <time>2020-08-26T13:48:40+02:00</time>
      </trkpt>
      <trkpt lat="46.75294" lon="5.61154">
        <ele>258</ele>
        <time>2020-08-26T13:48:45+02:00</time>
      </trkpt>
      <trkpt lat="46.75239" lon="5.61148">
        <ele>259</ele>
        <time>2020-08-26T13:48:50+02:00</time>
      </trkpt>
      <trkpt lat="46.75215" lon="5.61101">
        <ele>262</ele>
        <time>2020-08-26T13:48:55+02:00</time>
      </trkpt>
      <trkpt lat="46.75205" lon="5.61051">
        <ele>264</ele>
        <time>2020-08-26T13:49:00+02:00</time>
      </trkpt>
      <trkpt lat="46.75137" lon="5.61159">
        <ele>265</ele>
        <time>2020-08-26T13:49:05+02:00</time>
      </trkpt>
      <trkpt lat="46.75074" lon="5.61137">
        <ele>267</ele>
        <time>2020-08-26T13:49:10+02:00</time>
      </trkpt>
    </trkseg>
  </trk>
</gpx>